• Join FlightAware (Why Join?)
  • Login
  • US Flag 
09:22AM EDT


 

Airport Tracker/Info


-or-


 

Live Flight TrackerFlight Track Log ✈ FLG3735 ✈ 29-Apr-2013 ✈ KDTW - KALB

Flight Track Log - Related Links

Times and Time Zones

All times are in EDT time to prevent confusion due to time zone crossing. See the FLG3735 flight status page for this flight to view local times or setup timezone preferences in your user account.

Time Position Orientation Groundspeed Altitude Reporting Facility
EDT Latitude Longitude Course Direction KTS MPH feet Rate Location/Type
09:49PM 42.2081 -83.3528 82° East 144 166 1,200  Level Cleveland Center
09:50PM 42.1561 -83.3450 174° South 199 229 3,500 2,040 Climbing Cleveland Center
09:51PM 42.0872 -83.3475 182° South 273 314 5,600 2,280 Climbing Cleveland Center
09:52PM 42.2840 -82.9135 75° East  Level FlightAware Approximate
09:52PM 42.0178 -83.2803 144° Southeast 299 344 8,900  Level Cleveland Center
09:53PM 42.3131 -82.7681 75° East  Level FlightAware Approximate
09:53PM 42.0433 -83.1722 72° East 323 372 10,000  Level Cleveland Center
09:54PM 42.3298 -82.6193 82° East  Level FlightAware Approximate
09:54PM 42.0936 -83.0681 57° Northeast 323 372 10,000  Level Cleveland Center
09:55PM 42.1372 -82.9717 59° Northeast 323 372 10,000 60 Level Cleveland Center
09:56PM 42.1853 -82.8669 58° Northeast 328 377 10,200 1,560 Climbing Cleveland Center
09:58PM 42.2833 -82.6431 59° Northeast 333 383 14,700 2,100 Climbing Cleveland Center
09:59PM 42.3333 -82.5242 60° Northeast 345 397 16,500 1,740 Climbing Cleveland Center
10:00PM 42.3628 -82.3844 74° East 354 407 18,200 1,620 Climbing Cleveland Center
10:01PM 42.3586 -82.2411 92° East 369 425 19,800 1,500 Climbing Cleveland Center
10:02PM 42.3525 -82.0864 93° East 399 459 21,200 1,320 Climbing Cleveland Center
10:03PM 42.3442 -81.9147 94° East 411 473 22,500 1,080 Climbing Cleveland Center
10:04PM 42.3375 -81.7572 93° East 419 482 23,400 660 Climbing Cleveland Center
10:05PM 42.3308 -81.5886 93° East 424 488 23,900 480 Climbing Cleveland Center
10:06PM 42.3217 -81.4228 94° East 444 511 24,400 480 Climbing Cleveland Center
10:07PM 42.3144 -81.2514 93° East 444 511 24,900 480 Climbing Cleveland Center
10:08PM 42.3050 -81.0772 94° East 449 517 25,400 540 Climbing Cleveland Center
10:09PM 42.2972 -80.9061 93° East 460 529 26,000 540 Climbing Cleveland Center
10:10PM 42.2872 -80.7292 94° East 465 535 26,500 420 Climbing Cleveland Center
10:11PM 42.2767 -80.5719 95° East 465 535 26,900 420 Climbing Cleveland Center
10:12PM 42.2661 -80.3953 95° East 460 529 27,400 480 Climbing Cleveland Center
10:13PM 42.2575 -80.2214 94° East 460 529 27,900 480 Climbing Cleveland Center
10:14PM 42.2464 -80.0447 95° East 460 529 28,400 540 Climbing Cleveland Center
10:15PM 42.2661 -79.8564 82° East 455 524 29,000 300 Climbing Cleveland Center
10:16PM 42.2836 -79.6822 82° East 462 532 29,000  Level Cleveland Center
10:17PM 42.3031 -79.5081 81° East 462 532 29,000  Level Cleveland Center
10:18PM 42.3200 -79.3281 83° East 468 539 29,000  Level Cleveland Center
10:19PM 42.3389 -79.1533 82° East 473 544 29,000  Level Cleveland Center
10:20PM 42.3572 -78.9731 82° East 473 544 29,000  Level Cleveland Center
10:21PM 42.3756 -78.7983 82° East 473 544 29,000  Level Cleveland Center
10:22PM 42.3936 -78.6236 82° East 467 537 29,000  Level Cleveland Center
10:23PM 42.4092 -78.4489 83° East 467 537 29,000  Level Cleveland Center
10:24PM 42.4247 -78.2739 83° East 467 537 29,000  Level Cleveland Center
10:25PM 42.4397 -78.1017 83° East 467 537 29,000  Level Cleveland Center
10:26PM 42.4567 -77.9264 82° East 467 537 29,000  Level Cleveland Center
10:27PM 42.4697 -77.7711 83° East 467 537 29,000  Level Cleveland Center
10:28PM 42.4842 -77.5958 84° East 467 537 29,000  Level Cleveland Center
10:29PM 42.5019 -77.4033 83° East 467 537 29,000  Level Cleveland Center
10:31PM 42.5244 -77.1286 84° East 479 551 29,000  Level Boston Center
10:32PM 42.5378 -76.9550 84° East 474 545 29,000  Level Boston Center
10:33PM 42.5508 -76.7839 84° East 469 540 29,000  Level Boston Center
10:34PM 42.5656 -76.6100 83° East 464 534 29,000  Level Boston Center
10:35PM 42.5783 -76.4331 84° East 464 534 29,000  Level Boston Center
10:36PM 42.5931 -76.2422 84° East 459 528 29,000  Level Boston Center
10:37PM 42.6050 -76.0681 85° East 464 534 29,000  Level Boston Center
10:38PM 42.6167 -75.8967 85° East 464 534 29,000 -120 Level Boston Center
10:39PM 42.6303 -75.7167 84° East 466 536 28,800 -1,440 Descending Boston Center
10:40PM 42.6414 -75.5478 85° East 466 536 26,200 -2,520 Descending Boston Center
10:41PM 42.6542 -75.3792 84° East 455 524 23,800 -2,400 Descending Boston Center
10:42PM 42.6667 -75.2131 84° East 443 510 21,400 -2,400 Descending Boston Center
10:43PM 42.6744 -75.0581 86° East 432 497 19,100 -2,220 Descending Boston Center
10:44PM 42.6822 -74.9058 86° East 420 483 17,000 -1,980 Descending Boston Center
10:45PM 42.6856 -74.8381 86° East 398 458 16,200 -2,040 Descending Boston Center
10:45PM 42.6914 -74.7650 84° East 409 471 15,000 -2,400 Descending Boston Center
10:46PM 42.6978 -74.6494 86° East 407 468 13,300 -2,520 Descending Boston Center
10:46PM 42.7008 -74.6014 85° East 398 458 12,500 -2,340 Descending Boston Center
10:47PM 42.7047 -74.5083 87° East 383 441 11,000 -1,920 Descending Boston Center
10:47PM 42.7094 -74.4744 79° East 388 447 10,600 -1,380 Descending Boston Center
10:48PM 42.7192 -74.3900 81° East 297 342 9,600 -1,620 Descending Boston Center
10:48PM 42.7283 -74.3508 72° East 321 369 9,000 -1,920 Descending Boston Center
10:49PM 42.7500 -74.2919 63° Northeast 262 302 7,700 -1,800 Descending Boston Center
10:49PM 42.7589 -74.2669 64° Northeast 279 321 7,200 -2,220 Descending Boston Center
10:50PM 42.7872 -74.1886 64° Northeast 273 314 5,500 -2,220 Descending Boston Center
10:50PM 42.7917 -74.1631 77° East 268 308 5,000 -1,980 Descending Boston Center
10:51PM 42.8178 -74.0958 62° Northeast 277 319 3,500 -1,500 Descending Boston Center
10:51PM 42.8264 -74.0708 65° Northeast 268 308 3,500 -540 Level Boston Center
10:52PM 42.8564 -74.0178 52° Northeast 234 269 3,000 -540 Descending Boston Center
10:52PM 42.8564 -74.0119 90° East 258 297 3,000  Level Boston Center
10:53PM 42.8822 -73.9447 62° Northeast 203 234 3,000  Level Boston Center
10:53PM 42.8844 -73.9306 78° East 222 255 3,000 -720 Level Boston Center
10:54PM 42.8958 -73.8656 77° East 215 247 2,300 -600 Descending Boston Center
10:55PM 42.8672 -73.8139 127° Southeast 190 219 2,000 -300 Descending Boston Center